Time;durP1;ratioP1;P1;durP2;ratioP2;P2;SDS_P1;SDS_P2;PMS_P1;PMS_P2;Temp;Humidity;BMP_temperature;BMP_pressure;BME280_temperature;BME280_humidity;BME280_pressure;Samples;Min_cycle;Max_cycle;Signal;HPM_P1;HPM_P2
2021/10/30 00:02:05;;;;;;;0.30;0.20;;;;;;;8.03;100.00;99728.03;5023868;28;21005;-49
2021/10/30 00:04:31;;;;;;;0.30;0.20;;;;;;;8.15;100.00;99734.75;5046536;28;20452;-49
2021/10/30 00:06:59;;;;;;;3.53;2.07;;;;;;;8.22;100.00;99739.00;5048260;28;20470;-49
2021/10/30 00:09:26;;;;;;;0.40;0.40;;;;;;;8.17;100.00;99734.72;5042742;28;20451;-49
2021/10/30 00:11:53;;;;;;;0.30;0.20;;;;;;;8.19;100.00;99731.13;5040848;28;20451;-49
2021/10/30 00:14:19;;;;;;;0.30;0.20;;;;;;;8.50;100.00;99717.91;5046327;28;20451;-49
2021/10/30 00:16:46;;;;;;;0.30;0.20;;;;;;;8.32;100.00;99719.25;5048243;28;21049;-49
2021/10/30 00:19:13;;;;;;;0.30;0.20;;;;;;;8.20;100.00;99727.56;5043729;28;20446;-51
2021/10/30 00:21:40;;;;;;;0.30;0.20;;;;;;;8.29;100.00;99721.16;5041281;28;20523;-49
2021/10/30 00:24:06;;;;;;;0.57;0.57;;;;;;;8.37;100.00;99720.97;5045254;28;20952;-50
2021/10/30 00:26:33;;;;;;;0.50;0.50;;;;;;;8.23;100.00;99716.91;5046906;28;20479;-49
2021/10/30 00:29:00;;;;;;;0.47;0.47;;;;;;;8.26;100.00;99714.16;5045196;28;20447;-49
2021/10/30 00:31:27;;;;;;;4.53;1.70;;;;;;;8.33;100.00;99714.84;5048399;28;20444;-49
2021/10/30 00:33:53;;;;;;;0.30;0.20;;;;;;;8.35;100.00;99696.28;5042974;28;20817;-49
2021/10/30 00:36:20;;;;;;;0.30;0.20;;;;;;;8.44;100.00;99709.28;5047574;28;20509;-50
2021/10/30 00:38:46;;;;;;;0.53;0.50;;;;;;;8.59;100.00;99711.47;5044361;28;20860;-49
2021/10/30 00:41:13;;;;;;;0.30;0.20;;;;;;;8.29;100.00;99705.25;5038108;28;20835;-50
2021/10/30 00:43:41;;;;;;;0.30;0.20;;;;;;;8.25;100.00;99709.78;5044562;28;20482;-48
2021/10/30 00:46:07;;;;;;;0.73;0.73;;;;;;;8.40;100.00;99703.22;5040664;28;20458;-49
2021/10/30 00:48:34;;;;;;;0.40;0.40;;;;;;;8.44;100.00;99691.59;5043354;28;20976;-49
2021/10/30 00:51:03;;;;;;;2.30;1.27;;;;;;;8.02;100.00;99714.84;5047568;28;20523;-49
2021/10/30 00:53:32;;;;;;;1.80;0.80;;;;;;;8.12;100.00;99704.88;5041209;28;20456;-48
2021/10/30 00:56:01;;;;;;;0.30;0.20;;;;;;;8.03;100.00;99700.69;5047245;28;20506;-49
2021/10/30 00:58:35;;;;;;;0.30;0.20;;;;;;;7.99;100.00;99715.81;5045871;28;21049;-49
2021/10/30 01:01:05;;;;;;;0.50;0.50;;;;;;;7.96;100.00;99699.16;5040275;28;20461;-49
2021/10/30 01:03:35;;;;;;;0.80;0.80;;;;;;;8.07;100.00;99701.47;5046903;28;20455;-49
2021/10/30 01:06:03;;;;;;;5.90;1.30;;;;;;;7.96;100.00;99693.84;5041442;28;20451;-49
2021/10/30 01:08:29;;;;;;;1.60;1.60;;;;;;;7.91;100.00;99691.31;5040033;28;20525;-49
2021/10/30 01:10:56;;;;;;;0.30;0.20;;;;;;;7.95;100.00;99670.94;5045960;28;20447;-49
2021/10/30 01:13:24;;;;;;;0.30;0.30;;;;;;;7.96;100.00;99678.84;5046127;28;20508;-49
2021/10/30 01:15:50;;;;;;;2.17;1.13;;;;;;;8.02;100.00;99670.72;5041707;28;20504;-49
2021/10/30 01:18:17;;;;;;;0.83;0.83;;;;;;;8.08;100.00;99668.78;5039649;28;20502;-49
2021/10/30 01:20:43;;;;;;;0.50;0.50;;;;;;;8.10;100.00;99662.56;5045512;28;20505;-49
2021/10/30 01:23:10;;;;;;;0.30;0.20;;;;;;;8.26;100.00;99663.84;5046314;28;20995;-49
2021/10/30 01:25:38;;;;;;;0.30;0.20;;;;;;;8.15;100.00;99678.31;5041342;28;20479;-49
2021/10/30 01:28:04;;;;;;;0.30;0.20;;;;;;;8.19;100.00;99686.09;5039673;28;20479;-52
2021/10/30 01:30:31;;;;;;;0.30;0.20;;;;;;;8.13;100.00;99678.34;5045317;28;20452;-51
2021/10/30 01:33:04;;;;;;;0.30;0.20;;;;;;;8.12;100.00;99687.22;5045896;28;20443;-52
2021/10/30 01:35:38;;;;;;;0.30;0.20;;;;;;;8.08;100.00;99695.25;5043113;28;20442;-52
2021/10/30 01:38:05;;;;;;;0.30;0.20;;;;;;;8.06;100.00;99687.38;5041136;28;20470;-52
2021/10/30 01:40:39;;;;;;;0.80;0.57;;;;;;;7.97;100.00;99685.00;5040928;28;20521;-52
2021/10/30 01:43:06;;;;;;;1.13;1.13;;;;;;;7.96;100.00;99673.53;5038948;28;21011;-52
2021/10/30 01:45:32;;;;;;;0.40;0.20;;;;;;;7.96;100.00;99670.91;5039808;28;20498;-52
2021/10/30 01:48:00;;;;;;;1.23;1.23;;;;;;;8.07;100.00;99669.72;5042479;28;20471;-53
2021/10/30 01:50:28;;;;;;;0.67;0.30;;;;;;;8.36;100.00;99656.56;5039977;28;20888;-52
2021/10/30 01:52:59;;;;;;;0.30;0.20;;;;;;;8.19;100.00;99651.69;5046032;28;20898;-52
2021/10/30 01:55:29;;;;;;;0.30;0.30;;;;;;;8.10;100.00;99644.03;5046052;28;20869;-52
2021/10/30 01:57:55;;;;;;;2.20;2.10;;;;;;;8.10;100.00;99645.81;5040150;28;20521;-51
2021/10/30 02:00:22;;;;;;;0.30;0.20;;;;;;;7.95;100.00;99637.41;5039432;28;20833;-51
2021/10/30 02:02:49;;;;;;;0.40;0.33;;;;;;;7.95;100.00;99637.41;5044715;28;20515;-51
2021/10/30 02:05:16;;;;;;;0.30;0.27;;;;;;;7.96;100.00;99631.22;5046396;28;20447;-51
2021/10/30 02:07:43;;;;;;;1.57;0.73;;;;;;;7.88;100.00;99622.59;5039863;28;20471;-51
2021/10/30 02:10:11;;;;;;;0.30;0.20;;;;;;;7.90;100.00;99620.78;5039419;28;20451;-51
2021/10/30 02:12:39;;;;;;;0.30;0.20;;;;;;;8.08;100.00;99610.56;5045804;28;20451;-51
2021/10/30 02:15:07;;;;;;;0.30;0.20;;;;;;;7.95;100.00;99613.59;5039125;28;21011;-51
2021/10/30 02:17:34;;;;;;;0.70;0.67;;;;;;;8.06;100.00;99615.03;5046785;28;21042;-51
2021/10/30 02:20:03;;;;;;;0.30;0.20;;;;;;;8.10;100.00;99614.94;5038917;28;20470;-52
2021/10/30 02:22:30;;;;;;;0.30;0.20;;;;;;;7.99;100.00;99611.72;5042912;28;20495;-52
2021/10/30 02:24:56;;;;;;;1.37;1.37;;;;;;;7.91;100.00;99611.06;5036205;28;20458;-52
2021/10/30 02:27:23;;;;;;;0.30;0.20;;;;;;;7.87;100.00;99601.50;5048916;28;20529;-52
2021/10/30 02:29:49;;;;;;;0.57;0.57;;;;;;;7.88;100.00;99597.94;5038834;28;20455;-51
2021/10/30 02:32:16;;;;;;;0.30;0.20;;;;;;;7.90;100.00;99601.38;5042826;28;20448;-51
2021/10/30 02:34:43;;;;;;;0.30;0.20;;;;;;;7.85;100.00;99595.38;5048784;28;20490;-51
2021/10/30 02:37:10;;;;;;;0.30;0.20;;;;;;;7.84;100.00;99604.22;5036783;28;20472;-51
2021/10/30 02:39:37;;;;;;;0.30;0.20;;;;;;;7.77;100.00;99602.66;5045323;28;20452;-51
2021/10/30 02:42:04;;;;;;;0.30;0.20;;;;;;;7.69;100.00;99595.81;5032155;28;20487;-52
2021/10/30 02:44:31;;;;;;;0.30;0.20;;;;;;;7.65;100.00;99604.72;5045446;28;20479;-51
2021/10/30 02:46:58;;;;;;;1.50;1.50;;;;;;;7.77;100.00;99594.72;5034417;28;20921;-51
2021/10/30 02:49:25;;;;;;;0.30;0.20;;;;;;;7.61;100.00;99594.28;5045458;28;20455;-51
2021/10/30 02:51:51;;;;;;;1.07;1.07;;;;;;;7.74;100.00;99585.09;5043431;28;20951;-52
2021/10/30 02:54:18;;;;;;;0.30;0.20;;;;;;;7.59;100.00;99581.09;5038872;28;20447;-52
2021/10/30 02:56:44;;;;;;;0.30;0.20;;;;;;;7.59;100.00;99589.03;5042321;28;20482;-51
2021/10/30 02:59:11;;;;;;;0.30;0.20;;;;;;;7.63;100.00;99576.59;5049986;28;20455;-51
2021/10/30 03:01:37;;;;;;;0.30;0.20;;;;;;;7.53;100.00;99589.19;5040255;28;20541;-51
2021/10/30 03:04:04;;;;;;;0.73;0.73;;;;;;;7.47;100.00;99596.44;5049095;28;20467;-52
2021/10/30 03:06:31;;;;;;;1.20;1.20;;;;;;;7.60;100.00;99580.19;5041203;28;20451;-51
2021/10/30 03:08:59;;;;;;;0.30;0.20;;;;;;;7.77;100.00;99578.84;5041045;28;20450;-51
2021/10/30 03:11:26;;;;;;;0.30;0.20;;;;;;;7.89;100.00;99574.06;5044082;28;21002;-51
2021/10/30 03:13:52;;;;;;;4.07;0.80;;;;;;;7.99;100.00;99572.03;5049324;28;20877;-51
2021/10/30 03:16:19;;;;;;;0.30;0.20;;;;;;;7.87;100.00;99577.69;5043245;28;20483;-52
2021/10/30 03:18:46;;;;;;;0.30;0.20;;;;;;;7.75;100.00;99572.72;5049207;28;20475;-51
2021/10/30 03:21:13;;;;;;;0.83;0.50;;;;;;;7.79;100.00;99577.88;5048180;28;20446;-52
2021/10/30 03:23:39;;;;;;;0.30;0.20;;;;;;;7.78;100.00;99568.22;5037486;28;20502;-52
2021/10/30 03:26:06;;;;;;;0.30;0.20;;;;;;;7.71;100.00;99561.38;5048233;28;20458;-52
2021/10/30 03:28:33;;;;;;;0.30;0.20;;;;;;;7.29;100.00;99558.16;5041965;28;20478;-51
2021/10/30 03:30:59;;;;;;;0.30;0.20;;;;;;;7.06;100.00;99529.69;5042717;28;20451;-51
2021/10/30 03:33:26;;;;;;;0.30;0.20;;;;;;;7.28;100.00;99530.88;5045155;28;20482;-52
2021/10/30 03:35:53;;;;;;;0.30;0.20;;;;;;;7.34;100.00;99533.31;5055296;28;20486;-52
2021/10/30 03:38:20;;;;;;;0.30;0.20;;;;;;;7.56;100.00;99538.03;5041786;28;20498;-52
2021/10/30 03:40:46;;;;;;;2.10;1.17;;;;;;;7.60;100.00;99526.44;5041855;28;20459;-52
2021/10/30 03:43:13;;;;;;;0.30;0.20;;;;;;;7.39;100.00;99531.41;5036059;28;20482;-51
2021/10/30 03:45:40;;;;;;;0.30;0.20;;;;;;;7.30;100.00;99529.03;5042574;28;20447;-51
2021/10/30 03:48:08;;;;;;;0.30;0.30;;;;;;;7.32;100.00;99535.16;5042136;28;20506;-52
2021/10/30 03:50:36;;;;;;;1.27;1.17;;;;;;;6.89;100.00;99524.84;5041859;28;20498;-51
2021/10/30 03:53:06;;;;;;;0.30;0.20;;;;;;;7.02;100.00;99523.63;5042875;28;20512;-52
2021/10/30 03:55:33;;;;;;;0.40;0.40;;;;;;;6.96;100.00;99513.22;5043337;28;20914;-52
2021/10/30 03:58:00;;;;;;;2.20;2.00;;;;;;;6.91;100.00;99509.84;5042993;28;20466;-51
2021/10/30 04:00:27;;;;;;;0.30;0.20;;;;;;;6.77;100.00;99497.00;5041211;28;20506;-52
2021/10/30 04:02:54;;;;;;;2.20;0.73;;;;;;;7.04;100.00;99499.81;5045289;28;20482;-52
2021/10/30 04:05:22;;;;;;;0.30;0.20;;;;;;;7.08;100.00;99515.53;5041451;28;20908;-52
2021/10/30 04:07:49;;;;;;;0.30;0.20;;;;;;;7.22;100.00;99519.56;5045889;28;20510;-52
2021/10/30 04:10:15;;;;;;;0.30;0.20;;;;;;;7.26;100.00;99516.78;5037043;28;20875;-52
2021/10/30 04:12:42;;;;;;;0.30;0.20;;;;;;;7.38;100.00;99521.75;5047421;28;20477;-52
2021/10/30 04:15:09;;;;;;;0.30;0.20;;;;;;;7.53;100.00;99524.84;5041467;28;20497;-52
2021/10/30 04:17:35;;;;;;;1.37;1.07;;;;;;;7.63;100.00;99527.22;5045351;28;20467;-52
2021/10/30 04:20:03;;;;;;;0.60;0.60;;;;;;;7.46;100.00;99526.81;5047861;28;21058;-53
2021/10/30 04:22:30;;;;;;;0.57;0.57;;;;;;;7.47;100.00;99514.47;5026129;28;20519;-52
2021/10/30 04:24:58;;;;;;;0.30;0.20;;;;;;;7.49;100.00;99516.16;5040867;28;20443;-52
2021/10/30 04:27:24;;;;;;;0.30;0.20;;;;;;;7.47;100.00;99507.41;5044774;28;20495;-52
2021/10/30 04:29:51;;;;;;;0.30;0.20;;;;;;;7.46;100.00;99507.47;5048101;28;20452;-52
2021/10/30 04:32:18;;;;;;;0.30;0.20;;;;;;;7.41;100.00;99507.59;5043816;28;20454;-52
2021/10/30 04:34:49;;;;;;;0.60;0.60;;;;;;;7.33;100.00;99497.22;5040902;28;20963;-52
2021/10/30 04:37:16;;;;;;;0.30;0.20;;;;;;;7.39;100.00;99490.88;5046026;28;20471;-52
2021/10/30 04:39:48;;;;;;;0.30;0.20;;;;;;;7.32;100.00;99492.84;5047468;28;20505;-52
2021/10/30 04:42:16;;;;;;;1.00;1.00;;;;;;;7.27;100.00;99492.13;5027075;28;20482;-52
2021/10/30 04:44:44;;;;;;;0.30;0.30;;;;;;;6.82;100.00;99494.22;5040784;28;20451;-52
2021/10/30 04:47:15;;;;;;;0.97;0.97;;;;;;;7.03;100.00;99492.78;5041658;28;20483;-52
2021/10/30 04:49:44;;;;;;;0.30;0.20;;;;;;;7.18;100.00;99486.22;5029906;28;20448;-52
2021/10/30 04:52:10;;;;;;;0.30;0.20;;;;;;;6.86;100.00;99484.47;5047046;28;20450;-52
2021/10/30 04:54:37;;;;;;;0.30;0.20;;;;;;;7.02;100.00;99470.78;5040091;28;20451;-53
2021/10/30 04:57:04;;;;;;;0.30;0.20;;;;;;;7.04;100.00;99460.19;5040852;28;20894;-52
2021/10/30 04:59:32;;;;;;;0.30;0.20;;;;;;;7.20;100.00;99460.59;5027149;28;20481;-52
2021/10/30 05:01:58;;;;;;;0.40;0.37;;;;;;;7.12;100.00;99463.44;5027517;28;20500;-51
2021/10/30 05:04:25;;;;;;;0.30;0.20;;;;;;;7.06;100.00;99458.34;5040695;28;20457;-52
2021/10/30 05:06:52;;;;;;;0.30;0.20;;;;;;;7.17;100.00;99463.34;5040242;28;20476;-52
2021/10/30 05:09:19;;;;;;;0.30;0.20;;;;;;;7.20;100.00;99458.84;5046380;28;20452;-52
2021/10/30 05:11:45;;;;;;;0.30;0.20;;;;;;;7.22;100.00;99457.00;5047008;28;20477;-52
2021/10/30 05:14:12;;;;;;;0.30;0.20;;;;;;;7.23;100.00;99460.50;5033487;28;20451;-52
2021/10/30 05:16:39;;;;;;;0.30;0.20;;;;;;;7.22;100.00;99449.06;5046709;28;20470;-52
2021/10/30 05:19:06;;;;;;;0.30;0.20;;;;;;;7.33;100.00;99454.06;5040494;28;20451;-52
2021/10/30 05:21:32;;;;;;;0.30;0.20;;;;;;;7.38;100.00;99454.78;5021861;28;20448;-52
2021/10/30 05:23:59;;;;;;;0.30;0.20;;;;;;;7.35;100.00;99463.69;5045647;28;20553;-52
2021/10/30 05:26:26;;;;;;;0.30;0.20;;;;;;;7.35;100.00;99457.53;5034795;28;20455;-54
2021/10/30 05:28:52;;;;;;;0.30;0.20;;;;;;;7.10;100.00;99446.78;5045456;28;20475;-52
2021/10/30 05:31:20;;;;;;;0.30;0.20;;;;;;;7.05;100.00;99432.84;5035284;28;20969;-52
2021/10/30 05:33:46;;;;;;;8.90;3.80;;;;;;;7.20;100.00;99426.25;5044068;28;20490;-52
2021/10/30 05:36:13;;;;;;;0.30;0.20;;;;;;;7.15;100.00;99417.59;5046314;28;20848;-51
2021/10/30 05:38:45;;;;;;;0.40;0.40;;;;;;;7.39;100.00;99409.78;5036021;28;20578;-52
2021/10/30 05:41:12;;;;;;;0.30;0.20;;;;;;;7.42;100.00;99408.88;5041553;28;20473;-52
2021/10/30 05:43:39;;;;;;;0.30;0.20;;;;;;;7.45;100.00;99410.53;5042502;28;21036;-52
2021/10/30 05:46:09;;;;;;;0.40;0.30;;;;;;;7.42;100.00;99406.22;5034780;28;20525;-51
2021/10/30 05:48:37;;;;;;;0.30;0.30;;;;;;;7.39;100.00;99404.50;5035625;28;20475;-51
2021/10/30 05:51:05;;;;;;;0.30;0.20;;;;;;;7.46;100.00;99399.91;5037489;28;20451;-51
2021/10/30 05:53:32;;;;;;;0.30;0.20;;;;;;;7.41;100.00;99401.84;5041149;28;20452;-51
2021/10/30 05:55:59;;;;;;;2.60;2.40;;;;;;;7.25;100.00;99406.69;5045666;28;20448;-52
2021/10/30 05:58:26;;;;;;;0.30;0.20;;;;;;;7.05;100.00;99402.00;5044783;28;20475;-51
2021/10/30 06:00:53;;;;;;;0.30;0.20;;;;;;;6.82;100.00;99413.19;5036432;28;20459;-51
2021/10/30 06:03:20;;;;;;;0.30;0.20;;;;;;;7.07;100.00;99405.47;5035696;28;20570;-51
2021/10/30 06:05:46;;;;;;;0.47;0.47;;;;;;;7.16;100.00;99406.97;5042283;28;20482;-52
2021/10/30 06:08:13;;;;;;;0.30;0.20;;;;;;;7.21;100.00;99398.91;5039456;28;20895;-51
2021/10/30 06:10:40;;;;;;;0.30;0.20;;;;;;;7.27;100.00;99404.03;5046033;28;20447;-52
2021/10/30 06:13:07;;;;;;;0.30;0.20;;;;;;;7.24;100.00;99415.53;5044836;28;20455;-51
2021/10/30 06:15:33;;;;;;;0.30;0.20;;;;;;;7.13;100.00;99421.16;5038373;28;20513;-51
2021/10/30 06:18:00;;;;;;;0.30;0.20;;;;;;;7.29;100.00;99416.28;5045235;28;21078;-52
2021/10/30 06:20:26;;;;;;;0.30;0.20;;;;;;;6.96;100.00;99412.81;5046288;28;20509;-51
2021/10/30 06:22:53;;;;;;;0.30;0.20;;;;;;;7.01;100.00;99408.28;5039493;28;20580;-51
2021/10/30 06:25:20;;;;;;;0.67;0.67;;;;;;;6.95;100.00;99404.94;5040494;28;20475;-51
2021/10/30 06:27:46;;;;;;;0.30;0.20;;;;;;;6.94;100.00;99400.56;5039244;28;20483;-51
2021/10/30 06:30:13;;;;;;;0.30;0.20;;;;;;;7.13;100.00;99404.44;5043521;28;20447;-51
2021/10/30 06:32:41;;;;;;;0.60;0.60;;;;;;;7.34;100.00;99413.50;5038874;28;21019;-52
2021/10/30 06:35:09;;;;;;;0.30;0.20;;;;;;;7.34;100.00;99410.84;5045800;28;20482;-52
2021/10/30 06:37:39;;;;;;;0.30;0.20;;;;;;;7.28;100.00;99414.56;5045326;28;20528;-51
2021/10/30 06:40:09;;;;;;;0.30;0.20;;;;;;;7.56;100.00;99424.31;5036337;28;20482;-51
2021/10/30 06:42:36;;;;;;;0.30;0.20;;;;;;;7.57;100.00;99420.75;5045306;28;20487;-52
2021/10/30 06:45:04;;;;;;;0.30;0.20;;;;;;;7.14;100.00;99419.38;5040576;28;20862;-52
2021/10/30 06:47:31;;;;;;;0.30;0.20;;;;;;;7.38;100.00;99426.56;5038609;28;20467;-52
2021/10/30 06:50:00;;;;;;;0.30;0.20;;;;;;;7.21;100.00;99420.91;5043665;28;20451;-51
2021/10/30 06:52:37;;;;;;;0.33;0.30;;;;;;;7.34;100.00;99414.38;5043256;28;20452;-51
2021/10/30 06:55:12;;;;;;;0.30;0.20;;;;;;;7.11;100.00;99417.66;5040715;28;20496;-51
2021/10/30 06:57:39;;;;;;;0.30;0.20;;;;;;;7.01;100.00;99413.56;5045365;28;20463;-52
2021/10/30 07:00:08;;;;;;;0.30;0.20;;;;;;;6.95;100.00;99404.94;5043787;28;20446;-51
2021/10/30 07:02:34;;;;;;;0.30;0.20;;;;;;;7.04;100.00;99415.25;5038480;28;20540;-52
2021/10/30 07:05:06;;;;;;;0.30;0.20;;;;;;;7.10;100.00;99413.28;5039065;28;20456;-52
2021/10/30 07:07:33;;;;;;;0.30;0.20;;;;;;;7.08;100.00;99415.13;5045172;28;20475;-52
2021/10/30 07:10:00;;;;;;;0.30;0.20;;;;;;;7.13;100.00;99409.72;5036655;28;20451;-51
2021/10/30 07:12:31;;;;;;;1.07;0.97;;;;;;;7.28;100.00;99413.69;5039943;28;20455;-52
2021/10/30 07:15:03;;;;;;;0.30;0.20;;;;;;;7.30;100.00;99418.03;5047519;28;20481;-51
2021/10/30 07:17:30;;;;;;;0.30;0.20;;;;;;;7.30;100.00;99396.88;5033429;28;20507;-52
2021/10/30 07:19:57;;;;;;;0.30;0.20;;;;;;;7.64;100.00;99406.41;5043350;28;20463;-51
2021/10/30 07:22:23;;;;;;;0.30;0.20;;;;;;;7.60;100.00;99418.88;5042751;28;20505;-51
2021/10/30 07:24:51;;;;;;;1.30;1.30;;;;;;;7.79;100.00;99426.22;5034396;28;20452;-52
2021/10/30 07:27:18;;;;;;;0.30;0.20;;;;;;;7.65;100.00;99426.66;5039916;28;20909;-51
2021/10/30 07:29:46;;;;;;;2.70;2.60;;;;;;;7.62;100.00;99424.97;5043566;28;20516;-51
2021/10/30 07:32:13;;;;;;;0.30;0.20;;;;;;;7.54;100.00;99432.28;5040557;28;20598;-51
2021/10/30 07:34:40;;;;;;;0.30;0.20;;;;;;;7.57;100.00;99444.56;5051297;28;20498;-51
2021/10/30 07:37:06;;;;;;;0.30;0.20;;;;;;;7.61;100.00;99440.91;5042060;28;20479;-51
2021/10/30 07:39:34;;;;;;;0.30;0.20;;;;;;;7.70;100.00;99445.91;5045088;28;20525;-51
2021/10/30 07:42:03;;;;;;;0.30;0.20;;;;;;;7.58;100.00;99443.63;5020054;28;20464;-51
2021/10/30 07:44:29;;;;;;;0.30;0.20;;;;;;;7.51;100.00;99437.66;5048325;28;21027;-51
2021/10/30 07:46:56;;;;;;;0.30;0.20;;;;;;;7.64;100.00;99430.22;5045327;28;20885;-51
2021/10/30 07:49:23;;;;;;;0.30;0.20;;;;;;;7.66;100.00;99441.59;5041405;28;20943;-51
2021/10/30 07:51:49;;;;;;;0.30;0.20;;;;;;;7.67;100.00;99449.50;5046955;28;20448;-51
2021/10/30 07:54:16;;;;;;;0.73;0.73;;;;;;;7.67;100.00;99451.28;5045997;28;20817;-51
2021/10/30 07:56:43;;;;;;;0.30;0.20;;;;;;;7.66;100.00;99454.84;5044837;28;20533;-51
2021/10/30 07:59:10;;;;;;;0.30;0.20;;;;;;;7.69;100.00;99452.97;5048145;28;20451;-51
2021/10/30 08:01:37;;;;;;;0.30;0.20;;;;;;;7.71;100.00;99458.22;5046527;28;20454;-57
2021/10/30 08:04:08;;;;;;;0.30;0.20;;;;;;;7.78;100.00;99450.94;5024885;28;20494;-53
2021/10/30 08:06:35;;;;;;;0.30;0.20;;;;;;;7.80;100.00;99442.06;5043654;28;20499;-51
2021/10/30 08:09:03;;;;;;;0.30;0.20;;;;;;;7.90;100.00;99445.28;5048999;28;20499;-51
2021/10/30 08:11:30;;;;;;;0.30;0.20;;;;;;;8.00;100.00;99449.38;5046895;28;20451;-51
2021/10/30 08:13:57;;;;;;;0.30;0.20;;;;;;;7.90;100.00;99451.44;5023778;28;20496;-51
2021/10/30 08:16:23;;;;;;;0.30;0.20;;;;;;;7.93;100.00;99456.63;5042002;28;20506;-51
2021/10/30 08:18:50;;;;;;;0.30;0.20;;;;;;;7.94;100.00;99458.34;5048014;28;20458;-51
2021/10/30 08:21:17;;;;;;;0.30;0.20;;;;;;;7.95;100.00;99454.84;5047479;28;20451;-51
2021/10/30 08:23:43;;;;;;;0.67;0.67;;;;;;;7.97;100.00;99455.63;5048139;28;20488;-51
2021/10/30 08:26:10;;;;;;;0.30;0.20;;;;;;;7.89;100.00;99454.13;5030038;28;20478;-51
2021/10/30 08:28:37;;;;;;;0.30;0.20;;;;;;;7.97;100.00;99449.47;5040861;28;20458;-51
2021/10/30 08:31:04;;;;;;;1.23;1.23;;;;;;;7.99;100.00;99440.56;5041004;28;20538;-51
2021/10/30 08:33:30;;;;;;;0.67;0.67;;;;;;;7.89;100.00;99435.63;5034004;28;20502;-50
2021/10/30 08:35:57;;;;;;;0.40;0.40;;;;;;;7.96;100.00;99440.69;5037328;28;20589;-51
2021/10/30 08:38:23;;;;;;;0.30;0.20;;;;;;;8.22;100.00;99436.31;5046986;28;20463;-51
2021/10/30 08:40:52;;;;;;;0.30;0.30;;;;;;;7.96;100.00;99435.38;5047266;28;20457;-51
2021/10/30 08:43:21;;;;;;;0.30;0.20;;;;;;;7.98;100.00;99422.09;5030250;28;21050;-51
2021/10/30 08:45:50;;;;;;;0.30;0.20;;;;;;;8.03;100.00;99433.41;5040245;28;20448;-51
2021/10/30 08:48:21;;;;;;;0.43;0.43;;;;;;;7.85;100.00;99424.28;5046638;28;20518;-51
2021/10/30 08:50:52;;;;;;;1.80;1.80;;;;;;;7.95;100.00;99419.56;5042821;28;20538;-51
2021/10/30 08:53:20;;;;;;;0.80;0.57;;;;;;;7.94;100.00;99416.03;5040921;28;20793;-51
2021/10/30 08:55:47;;;;;;;0.30;0.20;;;;;;;7.99;100.00;99394.72;5046992;28;20450;-51
2021/10/30 08:58:17;;;;;;;0.70;0.67;;;;;;;7.90;100.00;99392.38;5043240;28;20467;-51
2021/10/30 09:00:47;;;;;;;0.30;0.20;;;;;;;7.64;100.00;99395.84;5040467;28;20512;-51
2021/10/30 09:03:16;;;;;;;0.30;0.20;;;;;;;7.51;100.00;99386.53;5043157;28;20490;-50
2021/10/30 09:05:45;;;;;;;0.30;0.20;;;;;;;7.52;100.00;99402.34;5048200;28;20447;-50
2021/10/30 09:08:12;;;;;;;0.30;0.20;;;;;;;7.74;100.00;99405.22;5045608;28;20885;-51
2021/10/30 09:10:42;;;;;;;0.30;0.20;;;;;;;7.63;100.00;99405.53;5035346;28;20870;-50
2021/10/30 09:13:11;;;;;;;0.30;0.20;;;;;;;7.87;100.00;99397.75;5045400;28;20801;-51
2021/10/30 09:15:45;;;;;;;0.80;0.80;;;;;;;7.70;100.00;99393.00;5051038;28;20455;-51
2021/10/30 09:18:32;;;;;;;0.30;0.20;;;;;;;7.72;100.00;99407.06;5038890;28;20984;-51
2021/10/30 09:21:02;;;;;;;0.30;0.20;;;;;;;7.73;100.00;99400.84;5035665;28;20811;-51
2021/10/30 09:23:31;;;;;;;0.60;0.60;;;;;;;7.98;100.00;99399.16;5019037;28;20537;-51
2021/10/30 09:26:05;;;;;;;0.90;0.90;;;;;;;7.94;100.00;99389.56;5045134;28;20520;-51
2021/10/30 09:28:41;;;;;;;0.30;0.20;;;;;;;8.14;100.00;99399.50;5039671;28;20482;-51
2021/10/30 09:31:10;;;;;;;0.40;0.30;;;;;;;7.95;100.00;99395.75;5039756;28;20444;-51
2021/10/30 09:33:55;;;;;;;2.20;0.70;;;;;;;7.83;100.00;99389.06;5052436;28;20434;-51
2021/10/30 09:36:27;;;;;;;0.30;0.20;;;;;;;7.93;100.00;99410.78;5049320;28;20884;-52
2021/10/30 09:39:00;;;;;;;0.47;0.47;;;;;;;8.14;100.00;99406.59;5044063;28;20489;-52
2021/10/30 09:41:32;;;;;;;0.30;0.20;;;;;;;8.05;100.00;99401.59;5039411;28;20455;-52
2021/10/30 09:44:04;;;;;;;0.30;0.20;;;;;;;8.16;100.00;99373.00;5040072;28;20911;-52
2021/10/30 09:46:33;;;;;;;6.03;1.33;;;;;;;7.73;100.00;99385.84;5042516;28;20806;-51
2021/10/30 09:49:29;;;;;;;0.30;0.30;;;;;;;7.83;100.00;99397.00;5036214;28;20568;-51
2021/10/30 09:52:10;;;;;;;0.30;0.20;;;;;;;7.98;100.00;99393.88;5048905;28;20928;-52
2021/10/30 09:54:37;;;;;;;1.13;1.13;;;;;;;8.12;100.00;99406.66;5028839;28;20437;-51
2021/10/30 09:57:08;;;;;;;0.83;0.83;;;;;;;8.03;100.00;99405.16;5026121;28;20467;-52
2021/10/30 09:59:39;;;;;;;0.30;0.20;;;;;;;8.28;100.00;99385.81;5025781;28;20478;-52
2021/10/30 10:02:07;;;;;;;0.30;0.20;;;;;;;8.51;100.00;99371.81;5032747;28;20452;-52
2021/10/30 10:04:39;;;;;;;0.30;0.20;;;;;;;8.37;100.00;99374.97;5032220;28;20550;-52
2021/10/30 10:07:10;;;;;;;0.30;0.20;;;;;;;8.56;100.00;99373.38;5031989;28;20510;-52
2021/10/30 10:09:37;;;;;;;0.30;0.20;;;;;;;8.74;100.00;99377.16;5034375;28;21015;-52
2021/10/30 10:12:05;;;;;;;0.30;0.20;;;;;;;8.56;100.00;99372.53;5033738;28;20443;-52
2021/10/30 10:14:33;;;;;;;0.30;0.20;;;;;;;8.17;100.00;99370.28;5033220;28;20448;-51
2021/10/30 10:17:00;;;;;;;0.30;0.20;;;;;;;8.39;100.00;99369.59;5043412;28;21008;-52
2021/10/30 10:19:27;;;;;;;0.30;0.20;;;;;;;8.31;100.00;99367.16;5039532;28;20457;-52
2021/10/30 10:21:55;;;;;;;0.30;0.20;;;;;;;8.42;100.00;99373.00;5033189;28;20455;-52
2021/10/30 10:24:37;;;;;;;0.30;0.20;;;;;;;8.52;100.00;99365.63;5032195;28;20492;-51
2021/10/30 10:27:06;;;;;;;0.63;0.63;;;;;;;8.09;100.00;99358.25;5040832;28;20594;-52
2021/10/30 10:29:37;;;;;;;1.20;1.20;;;;;;;8.23;100.00;99348.91;5039055;28;20456;-52
2021/10/30 10:32:24;;;;;;;0.30;0.20;;;;;;;8.23;100.00;99348.91;5034468;28;20480;-52
2021/10/30 10:34:51;;;;;;;0.30;0.20;;;;;;;8.33;100.00;99349.44;5020337;28;20971;-52
2021/10/30 10:37:20;;;;;;;0.30;0.20;;;;;;;8.31;100.00;99346.00;5039045;28;20471;-52
2021/10/30 10:39:53;;;;;;;1.23;1.07;;;;;;;8.54;100.00;99347.88;5039029;28;20451;-52
2021/10/30 10:42:34;;;;;;;0.30;0.20;;;;;;;8.36;100.00;99346.75;5025112;28;20513;-52
2021/10/30 10:45:13;;;;;;;0.30;0.20;;;;;;;7.97;100.00;99341.84;5035473;28;20541;-52
2021/10/30 10:47:41;;;;;;;1.70;1.60;;;;;;;8.38;100.00;99352.84;5035775;28;20471;-52
2021/10/30 10:50:14;;;;;;;0.40;0.40;;;;;;;8.61;100.00;99366.13;5040630;28;20459;-52
2021/10/30 10:52:59;;;;;;;2.10;2.10;;;;;;;8.78;100.00;99368.19;5039039;28;20447;-52
2021/10/30 10:55:30;;;;;;;0.30;0.20;;;;;;;8.79;100.00;99367.28;5037361;28;20498;-52
2021/10/30 10:58:01;;;;;;;0.30;0.20;;;;;;;8.67;100.00;99362.41;5040516;28;20475;-52
2021/10/30 11:00:29;;;;;;;0.40;0.27;;;;;;;8.61;100.00;99349.38;5042663;28;20546;-52
2021/10/30 11:02:56;;;;;;;4.50;1.23;;;;;;;8.63;100.00;99351.97;5041585;28;20906;-52
2021/10/30 11:05:35;;;;;;;1.37;1.37;;;;;;;8.39;100.00;99337.84;5041776;28;20545;-52
2021/10/30 11:08:12;;;;;;;0.30;0.20;;;;;;;8.30;100.00;99338.97;5032135;28;21255;-52
2021/10/30 11:10:42;;;;;;;0.30;0.20;;;;;;;8.12;100.00;99335.19;5040175;28;20810;-52
2021/10/30 11:13:13;;;;;;;6.73;1.47;;;;;;;8.35;100.00;99352.94;5041930;28;20452;-52
2021/10/30 11:15:49;;;;;;;0.40;0.20;;;;;;;8.57;100.00;99342.47;5050615;28;20469;-52
2021/10/30 11:18:25;;;;;;;0.30;0.20;;;;;;;8.59;100.00;99340.63;5033287;28;20463;-52
2021/10/30 11:21:15;;;;;;;1.27;1.27;;;;;;;8.58;100.00;99344.19;5045979;28;20447;-52
2021/10/30 11:23:47;;;;;;;6.80;1.43;;;;;;;8.43;100.00;99345.59;5040199;28;20545;-52
2021/10/30 11:26:21;;;;;;;0.30;0.20;;;;;;;8.66;100.00;99350.09;5045592;28;20510;-52
2021/10/30 11:28:48;;;;;;;0.30;0.20;;;;;;;8.63;100.00;99360.78;5021644;28;20526;-52
2021/10/30 11:31:18;;;;;;;1.93;0.67;;;;;;;8.87;100.00;99356.38;5047756;28;20444;-52
2021/10/30 11:34:08;;;;;;;0.30;0.20;;;;;;;8.98;100.00;99361.28;5040303;28;20497;-52
2021/10/30 11:36:37;;;;;;;0.30;0.20;;;;;;;9.12;100.00;99356.34;5044443;28;20474;-52
2021/10/30 11:39:09;;;;;;;0.70;0.67;;;;;;;9.09;100.00;99341.41;5047017;28;21016;-52
2021/10/30 11:41:38;;;;;;;0.30;0.20;;;;;;;9.08;100.00;99341.47;5048581;28;20467;-52